Time,TemperatureF,DewpointF,PressureIn,WindDirection,WindDirectionDegrees,WindSpeedMPH,WindSpeedGustMPH,Humidity,HourlyPrecipIn,Conditions,Clouds,dailyrainin,SoftwareType,DateUTC
2013-09-26 00:24:00,55.0,52.0,29.94,NNE,30,0.0,0.0,90,0.00,,,0.00,,2013-09-26 04:24:00,
2013-09-26 00:44:00,54.0,51.0,29.94,NNE,28,0.0,0.0,90,0.00,,,0.00,,2013-09-26 04:44:00,
2013-09-26 00:54:00,54.0,51.0,29.94,NNE,28,0.0,0.0,90,0.00,,,0.00,,2013-09-26 04:54:00,
2013-09-26 01:03:00,54.0,51.0,29.94,NNE,28,0.0,0.0,90,0.00,,,0.00,,2013-09-26 05:03:00,
2013-09-26 01:12:00,54.0,51.0,29.94,NNE,28,0.0,0.0,90,0.00,,,0.00,,2013-09-26 05:12:00,
2013-09-26 02:13:00,53.0,51.0,29.93,NNE,25,0.0,0.0,92,0.00,,,0.00,,2013-09-26 06:13:00,
2013-09-26 02:22:00,53.0,51.0,29.93,NNE,24,0.0,0.0,92,0.00,,,0.00,,2013-09-26 06:22:00,
2013-09-26 02:53:00,52.0,50.0,29.93,NNE,14,0.0,0.0,92,0.00,,,0.00,,2013-09-26 06:53:00,
2013-09-26 03:02:00,52.0,50.0,29.93,NNE,14,0.0,0.0,92,0.00,,,0.00,,2013-09-26 07:02:00,
2013-09-26 03:12:00,52.0,50.0,29.93,NNE,14,0.0,0.0,92,0.00,,,0.00,,2013-09-26 07:12:00,
2013-09-26 03:22:00,52.0,50.0,29.93,NNE,14,0.0,0.0,92,0.00,,,0.00,,2013-09-26 07:22:00,
2013-09-26 03:53:00,51.0,49.0,29.93,NE,37,0.0,0.0,92,0.00,,,0.00,,2013-09-26 07:53:00,
2013-09-26 04:11:00,51.0,49.0,29.93,NE,37,0.0,0.0,93,0.00,,,0.00,,2013-09-26 08:11:00,
2013-09-26 04:22:00,50.0,48.0,29.93,NE,37,0.0,0.0,93,0.00,,,0.00,,2013-09-26 08:22:00,
2013-09-26 04:52:00,50.0,48.0,29.93,NE,37,0.0,0.0,93,0.00,,,0.00,,2013-09-26 08:52:00,
2013-09-26 05:11:00,50.0,48.0,29.93,NE,37,0.0,0.0,93,0.00,,,0.00,,2013-09-26 09:11:00,
2013-09-26 05:22:00,49.0,47.0,29.93,NE,37,0.0,0.0,93,0.00,,,0.00,,2013-09-26 09:22:00,
2013-09-26 05:33:00,49.0,47.0,29.93,NE,37,0.0,0.0,93,0.00,,,0.00,,2013-09-26 09:33:00,
2013-09-26 05:43:00,49.0,47.0,29.93,NE,37,0.0,0.0,93,0.00,,,0.00,,2013-09-26 09:43:00,
2013-09-26 05:54:00,49.0,47.0,29.94,NE,37,0.0,0.0,93,0.00,,,0.00,,2013-09-26 09:54:00,
2013-09-26 06:03:00,49.0,47.0,29.94,NE,37,0.0,0.0,93,0.00,,,0.00,,2013-09-26 10:03:00,
2013-09-26 06:12:00,49.0,47.0,29.94,NE,37,0.0,0.0,93,0.00,,,0.00,,2013-09-26 10:12:00,
2013-09-26 06:23:00,49.0,47.0,29.94,NE,37,0.0,0.0,93,0.00,,,0.00,,2013-09-26 10:23:00,
2013-09-26 06:42:00,48.0,46.0,29.95,NE,37,0.0,0.0,93,0.00,,,0.00,,2013-09-26 10:42:00,
2013-09-26 06:53:00,48.0,46.0,29.95,NE,37,0.0,0.0,93,0.00,,,0.00,,2013-09-26 10:53:00,
2013-09-26 07:12:00,49.0,47.0,29.96,NE,37,0.0,0.0,93,0.00,,,0.00,,2013-09-26 11:12:00,
2013-09-26 07:22:00,49.0,47.0,29.96,NE,37,0.0,0.0,94,0.00,,,0.00,,2013-09-26 11:22:00,
2013-09-26 07:33:00,49.0,47.0,29.96,NE,37,0.0,0.0,94,0.00,,,0.00,,2013-09-26 11:33:00,
2013-09-26 07:52:00,49.0,47.0,29.96,NE,37,0.0,0.0,94,0.00,,,0.00,,2013-09-26 11:52:00,
2013-09-26 08:02:00,49.0,47.0,29.96,NE,37,0.0,0.0,94,0.00,,,0.00,,2013-09-26 12:02:00,
2013-09-26 08:22:00,49.0,47.0,29.99,NE,37,0.0,0.0,94,0.00,,,0.00,,2013-09-26 12:22:00,
2013-09-26 08:32:00,49.0,47.0,29.99,NE,37,0.0,0.0,94,0.00,,,0.00,,2013-09-26 12:32:00,
2013-09-26 08:42:00,49.0,47.0,29.99,NE,37,0.0,0.0,94,0.00,,,0.00,,2013-09-26 12:42:00,
2013-09-26 08:52:00,49.0,47.0,30.00,NE,37,0.0,0.0,94,0.00,,,0.00,,2013-09-26 12:52:00,
2013-09-26 09:12:00,50.0,49.0,30.00,NE,37,0.0,0.0,95,0.00,,,0.00,,2013-09-26 13:12:00,
2013-09-26 09:22:00,51.0,50.0,30.00,NE,37,0.0,1.0,95,0.00,,,0.00,,2013-09-26 13:22:00,
2013-09-26 09:52:00,54.0,54.0,30.01,NE,37,1.0,3.0,100,0.00,,,0.00,,2013-09-26 13:52:00,
2013-09-26 10:11:00,55.0,55.0,30.02,NNE,21,0.0,2.0,100,0.00,,,0.00,,2013-09-26 14:11:00,
2013-09-26 10:22:00,56.0,56.0,30.02,NE,38,2.0,3.0,100,0.00,,,0.00,,2013-09-26 14:22:00,
2013-09-26 10:32:00,56.0,56.0,30.02,NE,38,2.0,3.0,100,0.00,,,0.00,,2013-09-26 14:32:00,
2013-09-26 10:42:00,56.0,56.0,30.02,NE,38,2.0,3.0,100,0.00,,,0.00,,2013-09-26 14:42:00,
2013-09-26 10:52:00,59.0,58.0,30.02,NE,40,0.0,3.0,98,0.00,,,0.00,,2013-09-26 14:52:00,
2013-09-26 11:11:00,61.0,59.0,30.02,NE,38,1.0,2.0,92,0.00,,,0.00,,2013-09-26 15:11:00,
2013-09-26 11:22:00,63.0,57.0,30.01,NE,41,0.0,3.0,81,0.00,,,0.00,,2013-09-26 15:22:00,
2013-09-26 11:33:00,63.0,57.0,30.01,NE,41,0.0,3.0,81,0.00,,,0.00,,2013-09-26 15:33:00,
2013-09-26 11:54:00,67.0,57.0,30.02,NNE,25,2.0,3.0,70,0.00,,,0.00,,2013-09-26 15:54:00,
2013-09-26 12:04:00,67.0,57.0,30.02,NNE,25,2.0,3.0,70,0.00,,,0.00,,2013-09-26 16:04:00,
2013-09-26 12:13:00,67.0,57.0,30.02,NNE,25,2.0,3.0,70,0.00,,,0.00,,2013-09-26 16:13:00,
2013-09-26 12:24:00,70.0,57.0,30.01,NNE,16,0.0,5.0,63,0.00,,,0.00,,2013-09-26 16:24:00,
2013-09-26 12:33:00,70.0,57.0,30.01,NNE,16,0.0,5.0,63,0.00,,,0.00,,2013-09-26 16:33:00,
2013-09-26 12:54:00,71.0,56.0,30.01,North,359,0.0,6.0,60,0.00,,,0.00,,2013-09-26 16:54:00,
2013-09-26 13:12:00,73.0,57.0,30.01,NNE,24,0.0,6.0,58,0.00,,,0.00,,2013-09-26 17:12:00,
2013-09-26 13:23:00,73.0,57.0,30.01,NNE,24,0.0,6.0,58,0.00,,,0.00,,2013-09-26 17:23:00,
2013-09-26 13:53:00,76.0,54.0,30.01,South,171,1.0,5.0,46,0.00,,,0.00,,2013-09-26 17:53:00,
2013-09-26 14:02:00,76.0,54.0,30.01,South,171,1.0,5.0,46,0.00,,,0.00,,2013-09-26 18:02:00,
2013-09-26 14:13:00,76.0,54.0,30.01,South,171,1.0,5.0,46,0.00,,,0.00,,2013-09-26 18:13:00,
2013-09-26 14:22:00,76.0,55.0,30.01,NNE,14,4.0,7.0,49,0.00,,,0.00,,2013-09-26 18:22:00,
2013-09-26 14:52:00,77.0,56.0,30.00,NNE,23,1.0,6.0,48,0.00,,,0.00,,2013-09-26 18:52:00,
2013-09-26 15:22:00,78.0,57.0,30.00,ENE,61,0.0,6.0,48,0.00,,,0.00,,2013-09-26 19:22:00,
2013-09-26 15:52:00,78.0,57.0,30.00,SSE,161,2.0,7.0,49,0.00,,,0.00,,2013-09-26 19:52:00,
2013-09-26 16:12:00,78.0,58.0,30.00,SE,138,0.0,3.0,50,0.00,,,0.00,,2013-09-26 20:12:00,
2013-09-26 16:22:00,78.0,58.0,30.00,SE,138,0.0,3.0,50,0.00,,,0.00,,2013-09-26 20:22:00,
2013-09-26 16:32:00,78.0,58.0,30.00,SE,138,0.0,3.0,50,0.00,,,0.00,,2013-09-26 20:32:00,
2013-09-26 16:53:00,79.0,57.0,30.00,ENE,61,2.0,7.0,47,0.00,,,0.00,,2013-09-26 20:53:00,
2013-09-26 17:23:00,79.0,58.0,30.01,NE,35,0.0,6.0,49,0.00,,,0.00,,2013-09-26 21:23:00,
2013-09-26 17:54:00,77.0,58.0,30.01,NE,37,0.0,2.0,52,0.00,,,0.00,,2013-09-26 21:54:00,
2013-09-26 18:24:00,76.0,56.0,30.02,NE,44,1.0,2.0,50,0.00,,,0.00,,2013-09-26 22:24:00,
2013-09-26 18:32:00,76.0,56.0,30.02,NE,44,1.0,2.0,50,0.00,,,0.00,,2013-09-26 22:32:00,
2013-09-26 18:54:00,75.0,61.0,30.03,NE,42,0.0,0.0,61,0.00,,,0.00,,2013-09-26 22:54:00,
2013-09-26 19:03:00,75.0,61.0,30.03,NE,42,0.0,0.0,61,0.00,,,0.00,,2013-09-26 23:03:00,
2013-09-26 19:12:00,75.0,61.0,30.03,NE,42,0.0,0.0,61,0.00,,,0.00,,2013-09-26 23:12:00,
2013-09-26 19:23:00,71.0,61.0,30.04,NE,42,0.0,0.0,71,0.00,,,0.00,,2013-09-26 23:23:00,
2013-09-26 19:34:00,71.0,61.0,30.04,NE,42,0.0,0.0,71,0.00,,,0.00,,2013-09-26 23:34:00,
2013-09-26 20:22:00,66.0,59.0,30.05,ESE,107,0.0,0.0,79,0.00,,,0.00,,2013-09-27 00:22:00,
2013-09-26 20:52:00,65.0,59.0,30.06,NE,34,0.0,0.0,81,0.00,,,0.00,,2013-09-27 00:52:00,
2013-09-26 21:01:00,65.0,59.0,30.06,NE,34,0.0,0.0,81,0.00,,,0.00,,2013-09-27 01:01:00,
2013-09-26 21:12:00,65.0,59.0,30.06,NE,34,0.0,0.0,81,0.00,,,0.00,,2013-09-27 01:12:00,
2013-09-26 21:23:00,63.0,58.0,30.07,NE,35,0.0,0.0,84,0.00,,,0.00,,2013-09-27 01:23:00,
2013-09-26 21:32:00,63.0,58.0,30.07,NE,35,0.0,0.0,84,0.00,,,0.00,,2013-09-27 01:32:00,
2013-09-26 21:42:00,63.0,58.0,30.07,NE,35,0.0,0.0,84,0.00,,,0.00,,2013-09-27 01:42:00,
2013-09-26 21:52:00,63.0,58.0,30.07,NE,35,0.0,0.0,84,0.00,,,0.00,,2013-09-27 01:52:00,
2013-09-26 22:22:00,62.0,58.0,30.08,ESE,110,0.0,0.0,88,0.00,,,0.00,,2013-09-27 02:22:00,
2013-09-26 22:32:00,62.0,58.0,30.08,ESE,110,0.0,0.0,88,0.00,,,0.00,,2013-09-27 02:32:00,
2013-09-26 22:43:00,62.0,58.0,30.08,ESE,110,0.0,0.0,88,0.00,,,0.00,,2013-09-27 02:43:00,
2013-09-26 22:53:00,62.0,58.0,30.08,ESE,110,0.0,0.0,88,0.00,,,0.00,,2013-09-27 02:53:00,
2013-09-26 23:12:00,60.0,57.0,30.08,ESE,109,0.0,0.0,89,0.00,,,0.00,,2013-09-27 03:12:00,
2013-09-26 23:22:00,60.0,57.0,30.08,ESE,109,0.0,0.0,89,0.00,,,0.00,,2013-09-27 03:22:00,
2013-09-26 23:55:00,59.0,56.0,30.07,ESE,109,0.0,0.0,91,0.00,,,0.00,,2013-09-27 03:55:00,